Time;durP1;ratioP1;P1;durP2;ratioP2;P2;SDS_P1;SDS_P2;PMS_P1;PMS_P2;Temp;Humidity;BMP_temperature;BMP_pressure;BME280_temperature;BME280_humidity;BME280_pressure;Samples;Min_cycle;Max_cycle;Signal;HPM_P1;HPM_P2
2022/10/06 00:00:36;;;;;;;;;1.33;0.33;;;;;16.91;76.13;102198.88;5090071;28;47123;-78
2022/10/06 00:03:02;;;;;;;;;2.00;2.00;;;;;16.91;75.85;102201.56;5095268;28;45228;-77
2022/10/06 00:05:27;;;;;;;;;2.00;0.33;;;;;16.93;75.64;102214.81;5074236;28;45220;-78
2022/10/06 00:07:54;;;;;;;;;1.00;1.00;;;;;16.92;76.08;102219.34;5077919;27;46383;-77
2022/10/06 00:10:19;;;;;;;;;3.67;1.00;;;;;16.87;75.59;102220.91;5093812;28;47164;-78
2022/10/06 00:12:48;;;;;;;;;1.33;1.33;;;;;16.89;75.86;102237.69;5091398;28;45173;-77
2022/10/06 00:15:17;;;;;;;;;1.33;1.33;;;;;16.80;76.33;102228.84;5092620;28;45418;-77
2022/10/06 00:17:43;;;;;;;;;2.00;2.00;;;;;16.78;76.20;102233.56;5089883;28;46271;-77
2022/10/06 00:20:09;;;;;;;;;2.00;2.00;;;;;16.74;76.21;102232.25;5076025;28;47724;-78
2022/10/06 00:22:37;;;;;;;;;3.00;3.00;;;;;16.75;76.48;102244.66;5093493;28;45306;-78
2022/10/06 00:25:04;;;;;;;;;0.67;0.67;;;;;16.77;76.56;102254.19;5095081;28;45303;-78
2022/10/06 00:27:38;;;;;;;;;4.00;2.00;;;;;16.73;76.58;102249.38;5089276;28;46527;-77
2022/10/06 00:30:06;;;;;;;;;2.00;2.00;;;;;16.65;76.27;102248.41;5091587;28;45581;-77
2022/10/06 00:32:31;;;;;;;;;5.33;2.67;;;;;16.72;76.88;102256.59;5087498;28;44803;-78
2022/10/06 00:34:58;;;;;;;;;5.00;3.67;;;;;16.62;76.57;102256.00;5061162;28;45470;-78
2022/10/06 00:37:24;;;;;;;;;3.00;1.67;;;;;16.64;76.74;102267.41;5092211;28;45334;-78
2022/10/06 00:39:50;;;;;;;;;4.00;1.67;;;;;16.68;76.68;102276.75;5089594;28;46412;-76
2022/10/06 00:42:29;;;;;;;;;4.00;3.33;;;;;16.61;77.41;102267.75;5083909;28;45334;-77
2022/10/06 00:44:58;;;;;;;;;4.00;2.00;;;;;16.62;77.01;102277.47;5087293;28;45419;-77
2022/10/06 00:47:26;;;;;;;;;3.67;3.00;;;;;16.63;77.42;102287.19;5087427;28;45529;-77
2022/10/06 00:49:54;;;;;;;;;4.00;2.00;;;;;16.60;77.53;102283.00;5087365;28;45691;-76
2022/10/06 00:52:24;;;;;;;;;5.00;3.67;;;;;16.46;77.56;102278.41;5087463;28;45366;-77
2022/10/06 00:54:50;;;;;;;;;1.00;1.00;;;;;16.39;77.51;102275.56;5087305;28;45343;-76
2022/10/06 00:57:16;;;;;;;;;1.33;0.67;;;;;16.37;77.71;102270.38;5084829;28;47211;-77
2022/10/06 00:59:42;;;;;;;;;2.00;2.00;;;;;16.42;78.54;102288.63;5090665;28;45334;-78
2022/10/06 01:02:19;;;;;;;;;4.67;2.67;;;;;16.44;78.44;102296.50;5091327;28;45356;-77
2022/10/06 01:04:48;;;;;;;;;1.00;1.00;;;;;16.41;78.04;102295.03;5071135;28;45418;-77
2022/10/06 01:07:16;;;;;;;;;1.33;1.00;;;;;16.32;78.46;102296.06;5095417;27;45390;-77
2022/10/06 01:09:42;;;;;;;;;2.00;2.00;;;;;16.32;78.39;102299.59;5091144;27;45362;-77
2022/10/06 01:12:08;;;;;;;;;4.00;2.00;;;;;16.33;78.95;102303.94;5087998;28;45330;-77
2022/10/06 01:14:36;;;;;;;;;2.00;2.00;;;;;16.31;78.44;102300.59;5086625;28;45251;-77
2022/10/06 01:17:10;;;;;;;;;1.00;0.33;;;;;16.27;78.63;102305.47;5085376;28;46216;-77
2022/10/06 01:19:50;;;;;;;;;0.00;0.00;;;;;16.27;78.44;102313.53;5089168;28;45469;-77
2022/10/06 01:22:21;;;;;;;;;3.67;0.33;;;;;16.18;78.57;102303.84;5092178;28;45210;-77
2022/10/06 01:24:49;;;;;;;;;1.00;0.00;;;;;16.17;78.31;102312.91;5088932;28;51087;-77
2022/10/06 01:27:15;;;;;;;;;1.00;1.00;;;;;16.14;78.45;102316.75;5089748;28;45295;-77
2022/10/06 01:29:41;;;;;;;;;3.67;1.67;;;;;16.10;78.40;102319.97;5070068;28;47227;-77
2022/10/06 01:32:07;;;;;;;;;4.00;1.00;;;;;16.02;78.54;102304.75;5069349;28;45401;-77
2022/10/06 01:34:32;;;;;;;;;2.00;1.33;;;;;16.07;78.59;102328.34;5085811;28;45235;-76
2022/10/06 01:36:57;;;;;;;;;4.67;2.00;;;;;16.05;78.47;102323.16;5084320;28;45323;-77
2022/10/06 01:39:23;;;;;;;;;2.00;0.67;;;;;15.98;78.66;102327.53;5083616;28;45331;-77
2022/10/06 01:41:48;;;;;;;;;4.00;1.00;;;;;15.95;78.63;102333.22;5082930;28;45285;-77
2022/10/06 01:44:14;;;;;;;;;3.00;1.33;;;;;15.89;78.88;102329.34;5082794;28;45355;-76
2022/10/06 01:46:39;;;;;;;;;0.00;0.00;;;;;15.79;78.81;102337.59;5082878;28;45536;-77
2022/10/06 01:49:05;;;;;;;;;3.00;1.00;;;;;15.70;79.33;102325.19;5082588;28;46475;-77
2022/10/06 01:51:30;;;;;;;;;1.33;1.00;;;;;15.69;79.45;102334.25;5084242;28;45307;-77
2022/10/06 01:53:55;;;;;;;;;2.50;2.00;;;;;15.62;79.73;102328.72;5050816;28;44820;-77
2022/10/06 01:56:21;;;;;;;;;2.00;1.67;;;;;15.64;80.03;102330.25;5082759;28;47219;-77
2022/10/06 01:58:47;;;;;;;;;1.67;1.00;;;;;15.64;80.23;102329.41;5084370;28;45310;-77
2022/10/06 02:01:12;;;;;;;;;2.00;1.00;;;;;15.59;79.69;102321.06;5082658;28;45715;-77
2022/10/06 02:03:38;;;;;;;;;1.67;1.00;;;;;15.59;79.95;102326.41;5081935;28;45156;-76
2022/10/06 02:06:04;;;;;;;;;1.00;1.00;;;;;15.51;80.04;102336.09;5079977;28;47159;-76
2022/10/06 02:08:30;;;;;;;;;0.33;0.33;;;;;15.48;80.04;102344.47;5089822;27;45389;-76
2022/10/06 02:10:55;;;;;;;;;3.00;2.00;;;;;15.39;80.32;102340.97;5080923;28;45310;-76
2022/10/06 02:13:26;;;;;;;;;1.33;1.33;;;;;15.34;80.48;102350.50;5080737;28;45373;-76
2022/10/06 02:15:56;;;;;;;;;1.67;1.67;;;;;15.22;80.78;102342.81;5075054;28;45234;-77
2022/10/06 02:18:22;;;;;;;;;0.00;0.00;;;;;15.18;80.98;102343.31;5081224;28;48215;-78
2022/10/06 02:20:47;;;;;;;;;3.67;2.00;;;;;15.17;81.03;102352.34;5085506;28;45577;-77
2022/10/06 02:23:12;;;;;;;;;1.00;1.00;;;;;15.17;81.40;102357.72;5084797;28;45369;-77
2022/10/06 02:25:38;;;;;;;;;3.00;1.00;;;;;15.18;81.98;102360.22;5063908;28;46413;-77
2022/10/06 02:28:03;;;;;;;;;3.33;3.33;;;;;15.19;81.71;102367.25;5083906;28;45405;-77
2022/10/06 02:30:28;;;;;;;;;1.67;1.00;;;;;15.16;81.55;102364.91;5065392;28;45819;-77
2022/10/06 02:32:54;;;;;;;;;1.33;0.00;;;;;15.17;81.41;102369.25;5083960;28;45382;-77
2022/10/06 02:35:20;;;;;;;;;3.67;1.67;;;;;15.11;81.59;102370.75;5081844;28;45296;-77
2022/10/06 02:37:45;;;;;;;;;3.00;1.00;;;;;15.08;81.75;102375.59;5082390;28;45454;-77
2022/10/06 02:40:10;;;;;;;;;1.67;1.67;;;;;14.97;81.57;102374.88;5081475;28;45334;-77
2022/10/06 02:42:37;;;;;;;;;3.00;1.00;;;;;15.01;82.12;102378.94;5064039;28;45342;-77
2022/10/06 02:45:05;;;;;;;;;2.00;0.33;;;;;14.96;81.78;102378.56;5081698;28;45221;-77
2022/10/06 02:47:32;;;;;;;;;2.67;2.00;;;;;14.91;81.65;102378.25;5081350;28;45981;-76
2022/10/06 02:50:04;;;;;;;;;1.33;0.67;;;;;14.88;81.79;102392.75;5080438;28;45375;-77
2022/10/06 02:52:35;;;;;;;;;1.00;1.00;;;;;14.81;81.76;102385.56;5067032;28;45225;-76
2022/10/06 02:55:03;;;;;;;;;2.00;1.00;;;;;14.67;82.08;102385.16;5061757;28;46302;-76
2022/10/06 02:57:28;;;;;;;;;1.00;1.00;;;;;14.64;82.13;102393.50;5079192;28;48192;-77
2022/10/06 02:59:54;;;;;;;;;3.00;2.00;;;;;14.59;82.42;102393.97;5081891;28;45269;-77
2022/10/06 03:02:19;;;;;;;;;1.67;1.67;;;;;14.48;82.99;102387.06;5081918;28;45238;-76
2022/10/06 03:04:44;;;;;;;;;2.00;2.00;;;;;14.51;83.19;102397.44;5081193;28;45277;-76
2022/10/06 03:07:10;;;;;;;;;0.00;0.00;;;;;14.48;82.97;102403.13;5061274;28;48347;-76
2022/10/06 03:09:35;;;;;;;;;1.00;1.00;;;;;14.42;83.32;102405.59;5079400;28;45216;-77
2022/10/06 03:12:00;;;;;;;;;2.00;1.00;;;;;14.42;83.41;102406.44;5062396;28;45329;-76
2022/10/06 03:14:26;;;;;;;;;1.00;1.00;;;;;14.41;83.44;102403.91;5061487;28;46004;-77
2022/10/06 03:16:51;;;;;;;;;2.00;1.00;;;;;14.43;83.83;102417.97;5062625;28;48114;-77
2022/10/06 03:19:16;;;;;;;;;2.00;2.00;;;;;14.33;83.98;102408.22;5079875;28;45852;-77
2022/10/06 03:21:43;;;;;;;;;1.00;1.00;;;;;14.37;83.90;102422.13;5081110;28;45359;-77
2022/10/06 03:24:09;;;;;;;;;3.00;1.00;;;;;14.31;84.02;102417.41;5079943;28;45382;-76
2022/10/06 03:26:40;;;;;;;;;2.00;2.00;;;;;14.29;84.12;102422.91;5059347;28;47910;-77
2022/10/06 03:29:06;;;;;;;;;1.00;1.00;;;;;14.27;84.57;102424.91;5071530;28;45437;-76
2022/10/06 03:31:32;;;;;;;;;1.00;1.00;;;;;14.26;84.40;102426.75;5081071;28;45436;-76
2022/10/06 03:33:57;;;;;;;;;3.00;1.00;;;;;14.20;84.09;102423.84;5080615;28;45477;-76
2022/10/06 03:36:25;;;;;;;;;3.67;2.67;;;;;14.19;84.30;102430.19;5080262;28;45386;-77
2022/10/06 03:38:51;;;;;;;;;2.00;2.00;;;;;14.21;84.12;102445.09;5084389;28;45503;-76
2022/10/06 03:41:24;;;;;;;;;3.67;2.00;;;;;14.14;83.94;102438.69;5083883;28;45378;-76
2022/10/06 03:43:51;;;;;;;;;2.00;1.33;;;;;14.12;84.05;102449.53;5083888;28;45419;-77
2022/10/06 03:46:19;;;;;;;;;2.00;2.00;;;;;14.08;84.47;102450.84;5084219;28;45260;-77
2022/10/06 03:48:46;;;;;;;;;3.67;2.00;;;;;13.99;84.39;102444.63;5082869;28;45230;-77
2022/10/06 03:51:14;;;;;;;;;1.67;1.67;;;;;14.00;84.11;102456.97;5082603;28;45437;-76
2022/10/06 03:53:43;;;;;;;;;3.00;2.00;;;;;13.96;84.07;102454.75;5083321;28;45465;-77
2022/10/06 03:56:13;;;;;;;;;5.00;1.00;;;;;13.95;84.19;102469.13;5083775;28;45629;-77
2022/10/06 03:58:41;;;;;;;;;0.67;0.67;;;;;13.84;84.70;102464.84;5085537;28;45409;-77
2022/10/06 04:01:17;;;;;;;;;2.00;2.00;;;;;13.78;84.18;102470.81;5085042;28;45333;-77
2022/10/06 04:03:43;;;;;;;;;2.67;1.33;;;;;13.78;84.48;102482.34;5064809;28;45916;-77
2022/10/06 04:06:12;;;;;;;;;1.67;0.33;;;;;13.74;84.44;102492.50;5069338;28;48594;-77
2022/10/06 04:08:39;;;;;;;;;1.33;1.33;;;;;13.63;84.68;102488.22;5091114;27;45381;-77
2022/10/06 04:11:20;;;;;;;;;1.33;1.00;;;;;13.67;84.77;102496.75;5065381;28;45355;-76
2022/10/06 04:13:47;;;;;;;;;2.00;1.00;;;;;13.59;84.51;102486.84;5083462;28;45247;-77
2022/10/06 04:16:15;;;;;;;;;3.00;1.33;;;;;13.59;84.93;102494.84;5082045;28;47400;-77
2022/10/06 04:18:42;;;;;;;;;5.67;4.00;;;;;13.56;85.15;102494.31;5084136;28;45370;-77
2022/10/06 04:21:08;;;;;;;;;2.33;1.33;;;;;13.48;85.27;102484.34;5084850;27;45417;-77
2022/10/06 04:23:35;;;;;;;;;3.00;2.00;;;;;13.50;85.31;102487.75;5084786;28;45331;-76
2022/10/06 04:26:04;;;;;;;;;2.33;2.33;;;;;13.51;85.62;102508.13;5084763;28;45497;-77
2022/10/06 04:28:29;;;;;;;;;4.00;2.33;;;;;13.44;85.67;102493.66;5065216;28;45522;-77
2022/10/06 04:30:59;;;;;;;;;3.67;3.67;;;;;13.49;85.47;102502.06;5084841;28;45411;-77
2022/10/06 04:33:25;;;;;;;;;2.00;2.00;;;;;13.47;85.19;102502.19;5084249;28;45468;-77
2022/10/06 04:36:01;;;;;;;;;3.33;3.00;;;;;13.41;85.00;102501.97;5085520;28;45612;-77
2022/10/06 04:38:28;;;;;;;;;0.67;0.67;;;;;13.36;85.42;102500.59;5065859;28;45367;-77
2022/10/06 04:40:56;;;;;;;;;4.67;1.67;;;;;13.41;85.39;102518.00;5067153;28;45360;-78
2022/10/06 04:43:21;;;;;;;;;4.67;2.33;;;;;13.31;85.12;102502.00;5082000;28;46991;-77
2022/10/06 04:45:54;;;;;;;;;2.67;1.00;;;;;13.28;85.38;102505.84;5082832;28;47435;-77
2022/10/06 04:48:19;;;;;;;;;1.67;1.00;;;;;13.24;85.58;102510.66;5084503;28;45378;-77
2022/10/06 04:50:53;;;;;;;;;6.00;3.00;;;;;13.19;85.50;102510.25;5084249;28;45399;-76
2022/10/06 04:53:18;;;;;;;;;3.33;2.67;;;;;13.24;85.69;102521.31;5082427;28;46552;-76
2022/10/06 04:55:43;;;;;;;;;4.33;4.33;;;;;13.20;85.78;102524.44;5083627;28;45560;-76
2022/10/06 04:58:09;;;;;;;;;5.33;3.67;;;;;13.16;85.61;102518.53;5066391;28;45599;-77
2022/10/06 05:00:34;;;;;;;;;2.00;2.00;;;;;13.15;85.67;102518.69;5085427;28;45228;-76
2022/10/06 05:02:59;;;;;;;;;4.00;2.33;;;;;13.17;85.61;102522.88;5087126;28;45531;-77
2022/10/06 05:05:24;;;;;;;;;3.67;3.33;;;;;13.05;85.67;102510.75;5084157;28;45599;-77
2022/10/06 05:07:50;;;;;;;;;3.67;2.33;;;;;13.15;85.55;102524.88;5085369;28;45343;-77
2022/10/06 05:10:16;;;;;;;;;6.00;5.00;;;;;13.12;85.62;102523.34;5086726;28;45293;-77
2022/10/06 05:12:41;;;;;;;;;2.67;2.33;;;;;13.13;85.40;102521.50;5084229;28;45805;-77
2022/10/06 05:15:08;;;;;;;;;2.33;2.33;;;;;13.15;85.33;102532.03;5071694;28;45623;-77
2022/10/06 05:17:33;;;;;;;;;4.00;3.67;;;;;13.05;85.36;102534.75;5084973;28;45230;-77
2022/10/06 05:19:59;;;;;;;;;4.33;3.00;;;;;13.05;85.49;102532.91;5085071;28;45429;-77
2022/10/06 05:22:24;;;;;;;;;3.67;2.00;;;;;13.06;85.09;102539.09;5068161;28;47301;-77
2022/10/06 05:24:52;;;;;;;;;6.00;3.00;;;;;12.96;85.37;102529.28;5086680;28;45294;-78
2022/10/06 05:27:18;;;;;;;;;4.67;3.67;;;;;12.87;84.89;102528.34;5069005;28;45390;-77
2022/10/06 05:29:44;;;;;;;;;4.33;4.33;;;;;12.87;84.85;102536.34;5084519;28;45378;-77
2022/10/06 05:32:09;;;;;;;;;4.00;3.67;;;;;12.82;85.17;102543.97;5079870;28;46970;-77
2022/10/06 05:34:34;;;;;;;;;5.00;4.00;;;;;12.81;85.21;102552.94;5066522;28;47304;-77
2022/10/06 05:37:00;;;;;;;;;7.67;6.00;;;;;12.78;85.47;102557.75;5083391;28;44931;-77
2022/10/06 05:39:25;;;;;;;;;4.00;4.00;;;;;12.73;85.30;102559.03;5084707;28;45560;-78
2022/10/06 05:41:51;;;;;;;;;6.67;4.00;;;;;12.66;85.01;102547.22;5084384;28;45385;-77
2022/10/06 05:44:16;;;;;;;;;4.00;2.33;;;;;12.65;85.23;102556.22;5086488;27;45506;-77
2022/10/06 05:46:41;;;;;;;;;4.00;3.00;;;;;12.59;85.52;102562.97;5067753;28;45450;-78
2022/10/06 05:49:09;;;;;;;;;5.67;5.67;;;;;12.58;85.80;102565.78;5089044;28;45500;-76
2022/10/06 05:51:35;;;;;;;;;5.33;5.00;;;;;12.57;85.61;102572.94;5062517;28;46449;-76
2022/10/06 05:54:01;;;;;;;;;5.33;4.00;;;;;12.54;85.74;102569.72;5080155;28;45401;-75
2022/10/06 05:56:32;;;;;;;;;5.00;4.33;;;;;12.46;85.82;102562.44;5080244;28;45342;-76
2022/10/06 05:58:59;;;;;;;;;4.67;4.33;;;;;12.48;85.95;102569.28;5080533;28;45552;-76
2022/10/06 06:01:26;;;;;;;;;4.00;4.00;;;;;12.44;86.13;102578.56;5079959;28;45280;-75
2022/10/06 06:04:02;;;;;;;;;3.00;3.00;;;;;12.41;86.20;102576.19;5079912;28;46142;-75
2022/10/06 06:06:32;;;;;;;;;3.33;3.33;;;;;12.45;86.33;102576.75;5061347;28;45401;-75
2022/10/06 06:09:01;;;;;;;;;5.33;3.33;;;;;12.38;85.94;102565.78;5084585;27;45159;-76
2022/10/06 06:11:30;;;;;;;;;4.67;3.33;;;;;12.40;85.88;102577.16;5084032;28;46600;-75
2022/10/06 06:14:00;;;;;;;;;5.00;5.00;;;;;12.36;86.03;102583.75;5080563;28;47336;-76
2022/10/06 06:16:27;;;;;;;;;4.67;4.33;;;;;12.30;86.36;102577.16;5088380;28;45300;-76
2022/10/06 06:18:53;;;;;;;;;6.00;6.00;;;;;12.32;86.55;102585.88;5086961;28;45493;-75
2022/10/06 06:21:20;;;;;;;;;6.00;4.00;;;;;12.33;86.70;102590.22;5084376;28;47074;-76
2022/10/06 06:23:47;;;;;;;;;4.00;4.00;;;;;12.32;86.74;102593.88;5078977;27;45434;-76
2022/10/06 06:26:22;;;;;;;;;6.33;6.00;;;;;12.27;87.12;102588.09;5058431;28;45936;-75
2022/10/06 06:28:49;;;;;;;;;7.00;6.00;;;;;12.31;86.88;102599.34;5082114;27;45390;-77
2022/10/06 06:31:19;;;;;;;;;5.67;5.00;;;;;12.31;86.82;102594.00;5070489;28;47260;-78
2022/10/06 06:33:46;;;;;;;;;7.33;6.00;;;;;12.37;87.09;102601.44;5064696;28;46655;-77
2022/10/06 06:36:42;;;;;;;;;7.67;5.33;;;;;12.35;87.25;102598.91;5079685;28;45793;-78
2022/10/06 06:39:09;;;;;;;;;6.00;4.00;;;;;12.30;86.91;102597.66;5054970;28;45534;-77
2022/10/06 06:41:38;;;;;;;;;7.33;5.00;;;;;12.34;87.08;102607.91;5068532;28;46052;-77
2022/10/06 06:44:05;;;;;;;;;5.33;4.67;;;;;12.38;87.50;102616.44;5078142;28;45447;-76
2022/10/06 06:46:31;;;;;;;;;5.33;4.67;;;;;12.32;87.27;102606.34;5076153;28;46417;-76
2022/10/06 06:49:03;;;;;;;;;8.00;4.00;;;;;12.30;87.25;102608.31;5056158;28;45542;-76
2022/10/06 06:51:33;;;;;;;;;9.00;7.00;;;;;12.35;87.43;102619.41;5074351;28;45624;-78
2022/10/06 06:54:01;;;;;;;;;7.67;6.00;;;;;12.36;87.86;102621.06;5077749;28;46277;-77
2022/10/06 06:56:27;;;;;;;;;5.00;3.33;;;;;12.34;88.12;102621.25;5080318;28;45449;-79
2022/10/06 06:58:53;;;;;;;;;6.33;5.33;;;;;12.35;88.09;102630.06;5081465;28;45467;-79
2022/10/06 07:01:20;;;;;;;;;6.67;4.67;;;;;12.47;88.42;102638.78;5080444;28;45589;-79
2022/10/06 07:03:53;;;;;;;;;6.67;4.67;;;;;12.49;88.38;102637.63;5079939;28;46619;-78
2022/10/06 07:06:20;;;;;;;;;7.00;5.67;;;;;12.53;88.29;102642.69;5079885;28;45424;-78
2022/10/06 07:08:47;;;;;;;;;5.33;5.00;;;;;12.56;88.78;102651.25;5089411;27;45492;-75
2022/10/06 07:11:19;;;;;;;;;9.00;5.00;;;;;12.62;88.51;102657.84;5079152;28;45541;-76
2022/10/06 07:13:46;;;;;;;;;5.67;5.67;;;;;12.61;88.67;102656.19;5081999;28;45453;-77
2022/10/06 07:25:10;;;;;;;;;6.00;6.00;;;;;12.83;88.89;102654.19;5079974;27;45427;-77
2022/10/06 07:27:41;;;;;;;;;4.00;4.00;;;;;12.91;88.75;102666.81;5072634;28;45316;-76
2022/10/06 07:30:08;;;;;;;;;6.00;5.00;;;;;12.96;88.86;102676.09;5062376;28;45363;-76
2022/10/06 07:32:34;;;;;;;;;4.33;4.33;;;;;12.97;89.11;102664.44;5081557;28;45332;-76
2022/10/06 07:34:59;;;;;;;;;8.00;6.67;;;;;13.03;88.87;102671.03;5080488;27;45378;-76
2022/10/06 07:37:26;;;;;;;;;6.00;5.00;;;;;13.11;88.79;102683.66;5075159;27;45213;-77
2022/10/06 07:39:51;;;;;;;;;6.33;6.00;;;;;13.15;88.89;102678.88;5081616;28;45357;-77
2022/10/06 07:42:17;;;;;;;;;8.00;5.33;;;;;13.18;89.07;102683.91;5075563;27;45307;-76
2022/10/06 07:45:36;;;;;;;;;5.33;4.67;;;;;13.21;88.88;102675.63;5078566;28;47337;-77
2022/10/06 07:47:29;;;;;;;;;9.00;7.33;;;;;13.35;88.77;102687.69;5079193;27;45496;-76
2022/10/06 07:49:57;;;;;;;;;9.67;8.00;;;;;13.38;88.36;102692.75;5079974;28;45453;-76
2022/10/06 07:52:22;;;;;;;;;12.00;7.67;;;;;13.45;88.69;102684.97;5062730;28;46186;-77
2022/10/06 07:54:49;;;;;;;;;8.33;6.33;;;;;13.50;88.26;102682.75;5080341;28;46013;-76
2022/10/06 07:57:14;;;;;;;;;8.33;6.67;;;;;13.65;88.08;102699.16;5062592;28;46026;-76
2022/10/06 07:59:40;;;;;;;;;8.67;7.33;;;;;13.62;87.92;102691.41;5061607;28;45336;-76
2022/10/06 08:02:05;;;;;;;;;7.33;7.33;;;;;13.68;88.00;102696.16;5081577;28;45347;-76
2022/10/06 08:04:31;;;;;;;;;8.67;8.00;;;;;13.79;87.92;102705.81;5063263;28;47191;-76
2022/10/06 08:06:57;;;;;;;;;6.67;6.00;;;;;13.83;87.71;102701.84;5085645;27;45317;-76
2022/10/06 08:09:22;;;;;;;;;9.67;8.00;;;;;13.85;87.85;102699.88;5086196;27;45369;-76
2022/10/06 08:11:48;;;;;;;;;6.00;5.33;;;;;13.88;87.43;102702.28;5080223;27;45244;-76
2022/10/06 08:14:13;;;;;;;;;6.00;6.00;;;;;13.98;87.34;102712.06;5061866;28;47241;-77
2022/10/06 08:16:39;;;;;;;;;9.33;7.00;;;;;13.98;86.88;102704.06;5077577;27;45270;-76
2022/10/06 08:19:05;;;;;;;;;7.00;7.00;;;;;14.08;87.03;102718.22;5054494;28;45313;-76
2022/10/06 08:21:33;;;;;;;;;10.00;7.33;;;;;14.13;86.89;102715.91;5076022;28;45513;-76
2022/10/06 08:23:59;;;;;;;;;7.00;5.67;;;;;14.20;86.31;102710.81;5080902;28;45227;-76
2022/10/06 08:26:26;;;;;;;;;5.67;5.00;;;;;14.23;85.98;102725.72;5081572;28;45304;-77
2022/10/06 08:28:56;;;;;;;;;8.67;8.00;;;;;14.28;85.57;102726.13;5072553;28;45420;-75
2022/10/06 08:31:22;;;;;;;;;10.00;5.67;;;;;14.35;85.33;102721.00;5081407;28;45395;-76
2022/10/06 08:33:51;;;;;;;;;8.00;7.00;;;;;14.37;85.10;102719.03;5080972;28;46241;-76
2022/10/06 08:36:18;;;;;;;;;5.33;5.33;;;;;14.34;84.83;102704.09;5063134;28;46257;-77
2022/10/06 08:38:48;;;;;;;;;7.00;7.00;;;;;14.44;84.39;102722.78;5062649;28;45243;-77
2022/10/06 08:41:38;;;;;;;;;8.00;6.67;;;;;14.51;84.76;102729.19;5080515;27;45321;-76
2022/10/06 08:44:18;;;;;;;;;7.67;5.67;;;;;14.58;84.64;102725.91;5050470;28;46957;-77
2022/10/06 08:47:04;;;;;;;;;9.00;7.00;;;;;14.59;84.68;102728.44;5077548;28;45756;-77
2022/10/06 08:49:37;;;;;;;;;9.67;7.67;;;;;14.65;84.57;102726.97;5070799;28;45284;-77
2022/10/06 08:52:30;;;;;;;;;6.67;6.00;;;;;14.72;84.59;102735.22;5077079;27;46880;-77
2022/10/06 08:55:06;;;;;;;;;10.33;7.67;;;;;14.77;84.41;102733.81;5080616;28;46119;-77
2022/10/06 08:57:42;;;;;;;;;11.33;8.00;;;;;14.79;84.42;102736.34;5080760;28;45362;-78
2022/10/06 09:00:10;;;;;;;;;7.33;7.00;;;;;14.87;84.72;102752.47;5080965;28;45432;-77
2022/10/06 09:02:40;;;;;;;;;9.00;8.00;;;;;14.91;84.20;102750.34;5077173;28;47734;-77
2022/10/06 09:05:07;;;;;;;;;10.33;9.33;;;;;14.88;84.35;102739.94;5070422;28;47179;-76
2022/10/06 09:08:09;;;;;;;;;7.33;6.67;;;;;14.96;83.96;102748.03;5076518;27;45451;-77
2022/10/06 09:10:50;;;;;;;;;8.33;7.33;;;;;15.04;83.82;102749.94;5079551;28;45437;-77
2022/10/06 09:13:29;;;;;;;;;8.00;7.00;;;;;15.04;83.96;102749.09;5081608;27;45275;-78
2022/10/06 09:15:58;;;;;;;;;9.33;7.67;;;;;15.06;83.96;102760.50;5079334;27;45409;-78
2022/10/06 09:18:27;;;;;;;;;11.00;9.00;;;;;15.11;83.59;102760.84;5076650;28;45405;-78
2022/10/06 09:20:58;;;;;;;;;6.67;6.00;;;;;15.13;83.27;102756.19;5066324;28;45393;-78
2022/10/06 09:23:46;;;;;;;;;5.33;5.33;;;;;15.21;83.10;102750.94;5079829;27;45353;-78
2022/10/06 09:26:17;;;;;;;;;7.00;5.33;;;;;15.26;83.60;102755.78;5059385;28;48625;-78
2022/10/06 09:28:46;;;;;;;;;8.00;7.33;;;;;15.30;83.31;102750.97;5057852;28;45737;-78
2022/10/06 09:31:26;;;;;;;;;8.67;7.33;;;;;15.40;83.26;102751.72;5066781;28;45303;-77
2022/10/06 09:33:55;;;;;;;;;7.33;6.67;;;;;15.45;82.92;102744.06;5078790;28;47546;-77
2022/10/06 09:36:21;;;;;;;;;6.33;6.00;;;;;15.57;82.76;102757.16;5079212;28;46117;-77
2022/10/06 09:38:58;;;;;;;;;9.00;6.67;;;;;15.62;82.85;102746.81;5076353;28;45445;-78
2022/10/06 09:41:37;;;;;;;;;9.00;7.67;;;;;15.75;82.43;102757.94;5064145;28;45445;-78
2022/10/06 09:44:05;;;;;;;;;5.67;5.67;;;;;15.80;82.04;102743.22;5080061;28;45410;-77
2022/10/06 09:46:40;;;;;;;;;9.00;8.00;;;;;15.94;81.75;102747.97;5080397;28;45595;-79
2022/10/06 09:49:11;;;;;;;;;7.67;6.00;;;;;16.10;82.02;102757.13;5081613;28;45268;-78
2022/10/06 09:51:37;;;;;;;;;7.00;6.67;;;;;16.26;81.40;102749.09;5080350;28;45463;-76
2022/10/06 09:54:15;;;;;;;;;8.33;6.67;;;;;16.35;81.51;102746.47;5078717;28;46090;-78
2022/10/06 09:56:43;;;;;;;;;6.00;4.33;;;;;16.46;80.96;102748.00;5080286;28;45351;-79
2022/10/06 09:59:24;;;;;;;;;5.00;5.00;;;;;16.60;80.31;102738.44;5080729;28;45365;-78
2022/10/06 10:01:52;;;;;;;;;7.67;7.00;;;;;16.73;79.96;102744.16;5060047;27;45337;-78
2022/10/06 10:04:31;;;;;;;;;10.33;7.67;;;;;16.89;79.21;102742.50;5085720;27;45535;-77
2022/10/06 10:07:19;;;;;;;;;9.33;7.33;;;;;17.01;78.90;102745.69;5063628;27;47358;-77
2022/10/06 10:09:44;;;;;;;;;10.33;7.00;;;;;17.02;78.54;102745.53;5079871;28;45677;-77
2022/10/06 10:12:23;;;;;;;;;6.00;6.00;;;;;17.03;77.91;102743.69;5079943;28;45562;-78
2022/10/06 10:15:00;;;;;;;;;7.00;6.00;;;;;17.16;77.36;102748.56;5078360;28;46247;-78
2022/10/06 10:17:31;;;;;;;;;11.33;6.00;;;;;17.16;76.89;102733.28;5079899;28;45394;-78
2022/10/06 10:19:56;;;;;;;;;7.33;6.00;;;;;17.22;76.84;102734.47;5079472;28;45365;-78
2022/10/06 10:22:48;;;;;;;;;8.33;6.33;;;;;17.34;76.26;102737.63;5080071;28;45387;-78
2022/10/06 10:25:13;;;;;;;;;9.33;6.33;;;;;17.43;76.00;102743.84;5044519;28;47361;-79
2022/10/06 10:27:53;;;;;;;;;3.67;2.33;;;;;17.49;74.38;102737.78;5079712;28;45310;-77
2022/10/06 10:30:19;;;;;;;;;1.33;1.33;;;;;17.61;73.33;102735.56;5079634;28;45295;-78
2022/10/06 10:32:51;;;;;;;;;3.33;2.00;;;;;17.66;73.18;102729.66;5061861;28;45298;-77
2022/10/06 10:35:34;;;;;;;;;2.33;2.33;;;;;17.81;73.26;102739.69;5079476;28;45370;-78
2022/10/06 10:38:17;;;;;;;;;4.00;3.33;;;;;17.94;73.32;102737.28;5059707;28;48702;-76
2022/10/06 10:40:47;;;;;;;;;3.00;2.33;;;;;18.10;72.77;102738.19;5077919;27;45303;-78
2022/10/06 10:43:19;;;;;;;;;6.00;3.00;;;;;18.29;71.62;102736.97;5061315;28;45319;-77
2022/10/06 10:45:50;;;;;;;;;4.33;4.33;;;;;18.49;72.13;102729.25;5079164;28;45331;-76
2022/10/06 10:48:41;;;;;;;;;6.67;4.00;;;;;18.68;69.53;102725.25;5060967;28;47284;-77
2022/10/06 10:51:15;;;;;;;;;4.67;3.67;;;;;18.80;69.67;102731.03;5057607;28;45452;-78
2022/10/06 10:54:12;;;;;;;;;3.00;3.00;;;;;18.87;69.04;102725.78;5077358;28;45383;-77
2022/10/06 10:56:38;;;;;;;;;3.33;3.33;;;;;18.93;69.88;102725.06;5077036;28;46492;-77
2022/10/06 10:59:36;;;;;;;;;3.67;3.67;;;;;18.97;69.41;102713.91;5078041;28;46107;-77
2022/10/06 11:02:21;;;;;;;;;5.33;3.67;;;;;19.08;66.63;102715.34;5077658;28;45495;-78
2022/10/06 11:04:52;;;;;;;;;4.67;3.00;;;;;19.19;66.51;102717.59;5076926;28;45465;-78
2022/10/06 11:07:30;;;;;;;;;4.67;4.00;;;;;19.34;66.66;102720.31;5078747;28;45361;-77
2022/10/06 11:10:14;;;;;;;;;3.33;2.33;;;;;19.41;64.34;102710.47;5065085;28;45512;-77
2022/10/06 11:13:18;;;;;;;;;6.00;5.00;;;;;19.59;63.05;102716.47;5079113;28;45449;-77
2022/10/06 11:16:20;;;;;;;;;7.00;5.00;;;;;19.76;63.21;102720.69;5078360;28;45499;-76
2022/10/06 11:18:48;;;;;;;;;6.33;4.00;;;;;19.90;61.75;102724.34;5078895;28;45426;-78
2022/10/06 11:21:26;;;;;;;;;5.33;2.00;;;;;19.97;61.53;102710.13;5078686;28;45426;-76
2022/10/06 11:24:00;;;;;;;;;2.67;1.67;;;;;20.09;62.44;102718.59;5066751;28;45371;-77
2022/10/06 11:27:07;;;;;;;;;3.00;1.67;;;;;20.19;61.76;102711.00;5078992;28;45501;-76
2022/10/06 11:30:00;;;;;;;;;2.00;1.00;;;;;20.27;60.60;102721.72;5046861;28;47074;-76
2022/10/06 11:32:40;;;;;;;;;1.00;0.33;;;;;20.30;57.98;102715.91;5078724;28;45493;-77
2022/10/06 11:35:16;;;;;;;;;2.00;1.33;;;;;20.38;58.95;102711.44;5079340;28;45383;-76
2022/10/06 11:37:54;;;;;;;;;1.00;0.00;;;;;20.46;58.63;102719.38;5079385;28;45318;-77
2022/10/06 11:40:57;;;;;;;;;1.33;0.00;;;;;20.50;57.32;102715.25;5060516;28;46219;-76
2022/10/06 11:43:41;;;;;;;;;2.00;1.00;;;;;20.53;57.04;102720.28;5078495;28;46361;-77
2022/10/06 11:46:23;;;;;;;;;2.00;1.00;;;;;20.58;57.75;102705.34;5060111;28;45335;-76